Time;durP1;ratioP1;P1;durP2;ratioP2;P2;SDS_P1;SDS_P2;PMS_P1;PMS_P2;Temp;Humidity;BMP_temperature;BMP_pressure;BME280_temperature;BME280_humidity;BME280_pressure;Samples;Min_cycle;Max_cycle;Signal;HPM_P1;HPM_P2
2022/01/21 00:00:22;;;;;;;9.70;3.60;;;-0.10;92.30;;;;;;6219029;23;20219;-80
2022/01/21 00:02:49;;;;;;;10.27;2.83;;;-0.10;92.50;;;;;;6215523;23;20203;-80
2022/01/21 00:05:16;;;;;;;7.97;3.13;;;0.00;92.20;;;;;;6214918;23;20592;-83
2022/01/21 00:07:43;;;;;;;7.70;3.67;;;0.00;92.00;;;;;;6216325;23;20248;-81
2022/01/21 00:10:10;;;;;;;8.43;3.30;;;-0.10;91.80;;;;;;6213649;23;20204;-82
2022/01/21 00:12:37;;;;;;;6.27;3.30;;;-0.20;91.70;;;;;;6217513;23;20174;-82
2022/01/21 00:15:06;;;;;;;6.53;3.30;;;-0.20;92.20;;;;;;6215695;23;20225;-86
2022/01/21 00:17:34;;;;;;;8.30;3.30;;;-0.20;92.40;;;;;;6217338;23;20279;-81
2022/01/21 00:30:59;;;;;;;7.33;3.23;;;0.10;91.50;;;;;;6216342;23;20226;-82
2022/01/21 00:33:27;;;;;;;8.57;2.93;;;0.40;91.60;;;;;;6216592;23;20204;-81
2022/01/21 00:35:54;;;;;;;8.67;3.00;;;0.20;90.90;;;;;;6215036;23;20276;-83
2022/01/21 00:38:22;;;;;;;8.93;3.20;;;0.10;91.30;;;;;;6215536;23;20562;-84
2022/01/21 00:40:50;;;;;;;5.90;3.17;;;0.10;91.20;;;;;;6217722;23;20206;-82
2022/01/21 00:43:21;;;;;;;9.50;3.13;;;0.20;91.00;;;;;;6215822;23;20255;-82
2022/01/21 00:45:49;;;;;;;9.13;3.10;;;0.30;91.00;;;;;;6215697;23;20309;-81
2022/01/21 00:48:17;;;;;;;6.97;3.20;;;0.30;91.00;;;;;;6216212;23;20486;-81
2022/01/21 00:50:47;;;;;;;7.23;3.10;;;0.20;91.00;;;;;;6215565;23;20209;-82
2022/01/21 00:53:14;;;;;;;9.30;3.17;;;0.20;91.60;;;;;;6216006;23;20191;-81
2022/01/21 00:55:41;;;;;;;7.73;3.10;;;0.20;91.10;;;;;;6216045;23;20919;-81
2022/01/21 00:58:09;;;;;;;5.33;2.93;;;0.10;91.30;;;;;;6216945;23;20223;-81
2022/01/21 01:00:36;;;;;;;7.77;3.03;;;0.10;92.20;;;;;;6216376;23;20205;-81
2022/01/21 01:03:03;;;;;;;8.93;3.10;;;0.50;91.30;;;;;;6216750;23;20177;-81
2022/01/21 01:05:31;;;;;;;6.70;2.53;;;0.30;91.00;;;;;;6216456;23;20866;-80
2022/01/21 01:08:01;;;;;;;11.00;3.10;;;0.40;91.50;;;;;;6217585;23;20260;-84
2022/01/21 01:10:42;;;;;;;8.13;2.93;;;0.60;91.10;;;;;;6216969;23;20978;-81
2022/01/21 01:21:24;;;;;;;7.87;3.67;;;0.40;91.30;;;;;;6217342;23;20267;-81
2022/01/21 01:24:05;;;;;;;8.00;3.30;;;0.40;91.50;;;;;;6218186;23;20182;-81
2022/01/21 01:29:17;;;;;;;6.40;3.20;;;0.50;91.40;;;;;;6218359;23;20657;-81
2022/01/21 01:31:45;;;;;;;9.37;3.30;;;0.40;91.60;;;;;;6219817;23;20637;-84
2022/01/21 01:34:12;;;;;;;7.27;3.43;;;0.30;91.40;;;;;;6219897;23;20645;-82
2022/01/21 01:36:40;;;;;;;9.27;3.43;;;0.30;91.40;;;;;;6221308;23;20205;-82
2022/01/21 01:39:14;;;;;;;10.77;3.60;;;0.50;91.40;;;;;;6220527;23;20181;-83
2022/01/21 01:41:46;;;;;;;7.13;3.10;;;0.50;91.70;;;;;;6221458;23;20238;-84
2022/01/21 01:49:42;;;;;;;7.13;3.50;;;0.80;91.30;;;;;;6218982;23;20258;-82
2022/01/21 01:52:11;;;;;;;9.70;3.73;;;0.50;91.40;;;;;;6214399;23;20212;-81
2022/01/21 01:54:42;;;;;;;11.70;3.57;;;0.40;92.00;;;;;;6213514;23;20172;-82
2022/01/21 01:57:09;;;;;;;7.83;3.27;;;0.30;92.50;;;;;;6216107;23;20639;-82
2022/01/21 01:59:36;;;;;;;9.40;3.57;;;0.30;92.50;;;;;;6214472;23;20174;-83
2022/01/21 02:02:06;;;;;;;5.33;3.47;;;0.30;92.40;;;;;;6215020;23;20256;-86
2022/01/21 02:04:33;;;;;;;5.00;3.40;;;0.40;92.60;;;;;;6213431;23;20188;-82
2022/01/21 02:07:00;;;;;;;7.27;3.40;;;0.30;92.50;;;;;;6214452;23;20174;-82
2022/01/21 02:09:27;;;;;;;7.33;3.67;;;0.60;91.80;;;;;;6216010;23;20220;-81
2022/01/21 02:11:56;;;;;;;11.23;3.90;;;0.50;91.80;;;;;;6215749;23;20622;-83
2022/01/21 02:14:29;;;;;;;7.73;3.40;;;0.50;91.90;;;;;;6215637;23;20181;-81
2022/01/21 02:22:42;;;;;;;6.27;3.10;;;0.60;91.60;;;;;;6159787;23;20522;-81
2022/01/21 02:25:17;;;;;;;8.57;3.40;;;0.60;91.50;;;;;;6212826;23;20665;-86
2022/01/21 02:27:47;;;;;;;9.10;3.50;;;0.40;91.40;;;;;;6213916;23;20600;-79
2022/01/21 02:30:18;;;;;;;9.07;3.60;;;0.50;92.10;;;;;;6215205;23;20597;-82
2022/01/21 02:32:46;;;;;;;7.53;3.00;;;0.50;91.90;;;;;;6214456;23;20244;-80
2022/01/21 02:35:14;;;;;;;6.87;3.40;;;0.50;92.40;;;;;;6212754;23;20569;-79
2022/01/21 02:37:43;;;;;;;11.50;3.83;;;0.60;91.50;;;;;;6213394;23;20200;-78
2022/01/21 02:40:11;;;;;;;7.57;3.47;;;0.60;91.00;;;;;;6212787;23;20209;-80
2022/01/21 02:42:38;;;;;;;8.97;3.40;;;0.50;91.20;;;;;;6212914;23;20639;-79
2022/01/21 02:45:08;;;;;;;8.23;3.50;;;0.50;91.40;;;;;;6209219;23;20347;-81
2022/01/21 02:47:35;;;;;;;7.93;3.27;;;0.50;91.80;;;;;;6213290;23;20192;-81
2022/01/21 02:50:02;;;;;;;7.93;3.30;;;0.60;90.70;;;;;;6212373;23;20233;-87
2022/01/21 02:52:31;;;;;;;7.03;3.60;;;0.50;91.00;;;;;;6213443;23;20170;-82
2022/01/21 02:54:59;;;;;;;7.47;3.47;;;0.40;91.10;;;;;;6212837;23;20202;-81
2022/01/21 02:57:26;;;;;;;8.30;3.80;;;0.50;91.60;;;;;;6213197;23;20219;-83
2022/01/21 02:59:52;;;;;;;9.73;3.33;;;0.40;90.90;;;;;;6213386;22;20292;-81
2022/01/21 03:02:19;;;;;;;7.67;3.10;;;0.20;91.30;;;;;;6214967;23;20722;-83
2022/01/21 03:04:55;;;;;;;6.33;3.20;;;0.40;91.90;;;;;;6212535;23;20280;-83
2022/01/21 03:07:22;;;;;;;8.80;3.47;;;0.30;91.00;;;;;;6214510;23;20255;-83
2022/01/21 03:09:49;;;;;;;5.60;3.10;;;0.30;90.90;;;;;;6212949;23;20215;-82
2022/01/21 03:12:17;;;;;;;11.03;3.97;;;0.30;91.10;;;;;;6214100;23;20180;-81
2022/01/21 03:14:44;;;;;;;7.87;3.60;;;0.20;91.00;;;;;;6212778;23;20272;-79
2022/01/21 03:17:13;;;;;;;12.17;3.53;;;0.30;92.10;;;;;;6212561;23;20521;-86
2022/01/21 03:19:39;;;;;;;7.57;3.03;;;0.30;91.30;;;;;;6213218;23;20578;-79
2022/01/21 03:22:06;;;;;;;9.33;4.10;;;0.20;91.40;;;;;;6213122;23;20251;-80
2022/01/21 03:24:33;;;;;;;11.20;3.77;;;0.30;91.40;;;;;;6212272;23;20220;-81
2022/01/21 03:27:35;;;;;;;8.20;3.80;;;0.60;91.50;;;;;;6213618;23;20617;-79
2022/01/21 03:30:03;;;;;;;12.50;3.47;;;0.50;90.90;;;;;;6211622;23;20213;-82
2022/01/21 03:32:30;;;;;;;6.93;2.97;;;0.60;90.60;;;;;;6213957;23;20222;-79
2022/01/21 03:34:57;;;;;;;9.20;3.23;;;0.50;91.20;;;;;;6212298;23;20280;-80
2022/01/21 03:37:24;;;;;;;8.07;3.20;;;0.50;91.40;;;;;;6213063;23;20189;-80
2022/01/21 03:39:58;;;;;;;8.60;3.13;;;0.60;91.10;;;;;;6212604;23;20276;-81
2022/01/21 03:42:28;;;;;;;6.23;3.40;;;0.50;91.10;;;;;;6211800;23;20165;-79
2022/01/21 03:44:58;;;;;;;9.07;3.27;;;0.60;91.20;;;;;;6212210;23;20209;-79
2022/01/21 03:47:25;;;;;;;8.63;3.70;;;0.60;90.80;;;;;;6213176;23;20181;-79
2022/01/21 03:49:56;;;;;;;8.87;3.30;;;0.50;91.00;;;;;;6211136;23;20677;-82
2022/01/21 03:52:23;;;;;;;8.10;3.20;;;0.50;91.40;;;;;;6212165;23;20165;-79
2022/01/21 03:54:50;;;;;;;5.77;3.23;;;0.60;91.10;;;;;;6211653;23;20205;-80
2022/01/21 03:57:17;;;;;;;7.57;3.30;;;0.70;90.60;;;;;;6212080;23;20626;-79
2022/01/21 03:59:46;;;;;;;10.77;3.70;;;0.80;90.60;;;;;;6211550;23;20277;-84
2022/01/21 04:02:13;;;;;;;7.27;3.57;;;0.60;90.50;;;;;;6211293;23;20181;-79
2022/01/21 04:04:39;;;;;;;7.33;3.13;;;0.60;91.20;;;;;;6191258;23;20268;-81
2022/01/21 04:07:07;;;;;;;10.17;3.63;;;0.50;90.70;;;;;;6212175;23;20248;-81
2022/01/21 04:09:34;;;;;;;5.13;3.30;;;0.50;90.90;;;;;;6211653;23;20194;-79
2022/01/21 04:12:01;;;;;;;8.93;3.67;;;0.20;91.20;;;;;;6212869;23;20175;-87
2022/01/21 04:14:31;;;;;;;7.07;3.37;;;0.20;91.90;;;;;;6211188;23;20173;-79
2022/01/21 04:17:03;;;;;;;9.87;3.90;;;0.10;91.60;;;;;;6213008;23;20657;-79
2022/01/21 04:19:30;;;;;;;8.77;3.47;;;0.00;92.10;;;;;;6212059;23;20162;-79
2022/01/21 04:21:58;;;;;;;7.17;3.83;;;0.00;92.30;;;;;;6213581;23;20518;-81
2022/01/21 04:24:31;;;;;;;8.20;3.40;;;-0.10;92.30;;;;;;6212901;23;20188;-80
2022/01/21 04:26:58;;;;;;;8.50;3.23;;;-0.20;92.60;;;;;;6217057;23;20633;-80
2022/01/21 04:29:26;;;;;;;6.87;3.80;;;-0.20;93.00;;;;;;6214684;23;20180;-80
2022/01/21 04:31:54;;;;;;;7.47;3.50;;;-0.10;93.20;;;;;;6216490;23;20256;-85
2022/01/21 04:34:23;;;;;;;9.27;3.43;;;-0.10;93.10;;;;;;6214402;23;20200;-80
2022/01/21 04:36:51;;;;;;;6.83;3.17;;;-0.10;93.70;;;;;;6217114;23;20275;-82
2022/01/21 04:39:25;;;;;;;5.90;3.67;;;0.10;93.30;;;;;;6215234;23;20177;-81
2022/01/21 04:47:24;;;;;;;11.23;4.37;;;0.20;92.80;;;;;;6214940;23;20241;-80
2022/01/21 04:49:53;;;;;;;11.00;3.40;;;0.30;92.80;;;;;;6215704;23;20221;-85
2022/01/21 04:52:24;;;;;;;9.20;3.80;;;0.30;92.90;;;;;;6212928;23;20184;-84
2022/01/21 04:54:53;;;;;;;11.87;3.77;;;0.30;93.00;;;;;;6215193;23;20200;-82
2022/01/21 04:57:21;;;;;;;9.03;3.80;;;0.40;93.10;;;;;;6214814;23;20178;-85
2022/01/21 04:59:55;;;;;;;8.50;3.73;;;0.20;92.70;;;;;;6213845;23;20218;-81
2022/01/21 05:02:23;;;;;;;6.37;4.00;;;0.20;92.80;;;;;;6214953;23;20172;-80
2022/01/21 05:04:51;;;;;;;9.50;3.80;;;0.30;93.00;;;;;;6213359;23;20216;-81
2022/01/21 05:07:23;;;;;;;9.10;3.83;;;0.30;93.30;;;;;;6214400;23;20248;-80
2022/01/21 05:09:50;;;;;;;8.07;3.83;;;0.30;93.00;;;;;;6214001;23;20546;-81
2022/01/21 05:12:20;;;;;;;11.43;4.03;;;0.30;93.50;;;;;;6213045;23;20174;-81
2022/01/21 05:15:06;;;;;;;7.37;3.43;;;0.40;93.20;;;;;;6213087;23;20205;-80
2022/01/21 05:17:41;;;;;;;9.90;3.90;;;0.50;92.90;;;;;;6213547;23;20679;-81
2022/01/21 05:20:12;;;;;;;8.37;3.60;;;0.60;92.50;;;;;;6213682;23;20210;-81
2022/01/21 05:22:39;;;;;;;9.43;3.80;;;0.40;92.40;;;;;;6213815;23;20176;-80
2022/01/21 05:25:06;;;;;;;11.10;3.83;;;0.40;92.90;;;;;;6212105;23;20213;-82
2022/01/21 05:27:33;;;;;;;10.60;3.83;;;0.40;92.90;;;;;;6212488;23;20248;-81
2022/01/21 05:30:03;;;;;;;9.03;3.70;;;0.50;93.00;;;;;;6211555;23;20315;-81
2022/01/21 05:32:30;;;;;;;11.47;4.00;;;0.50;92.90;;;;;;6213601;23;20178;-82
2022/01/21 05:34:57;;;;;;;7.87;3.40;;;0.50;92.80;;;;;;6213024;23;20211;-81
2022/01/21 05:37:29;;;;;;;8.23;3.80;;;0.40;92.90;;;;;;6212721;23;20178;-81
2022/01/21 05:39:56;;;;;;;8.13;3.73;;;0.30;92.70;;;;;;6212676;23;20285;-80
2022/01/21 05:42:25;;;;;;;9.17;3.93;;;0.50;92.70;;;;;;6212860;23;20939;-80
2022/01/21 05:47:36;;;;;;;11.67;3.63;;;0.50;92.40;;;;;;6213468;23;20480;-85
2022/01/21 05:50:04;;;;;;;8.03;3.73;;;0.40;92.30;;;;;;6212063;23;20215;-82
2022/01/21 05:52:36;;;;;;;7.07;3.43;;;0.50;92.30;;;;;;6212802;23;20177;-81
2022/01/21 05:55:04;;;;;;;6.80;3.37;;;0.50;92.10;;;;;;6211449;23;20296;-80
2022/01/21 05:57:31;;;;;;;5.50;2.33;;;0.50;92.40;;;;;;6212245;23;20308;-84
2022/01/21 06:00:00;;;;;;;6.33;2.27;;;0.30;90.50;;;;;;6212567;23;20205;-81
2022/01/21 06:02:27;;;;;;;3.90;2.33;;;0.30;91.40;;;;;;6212281;23;21021;-81
2022/01/21 06:04:55;;;;;;;6.77;1.90;;;0.20;90.50;;;;;;6212426;23;20279;-88
2022/01/21 06:07:22;;;;;;;3.70;2.00;;;0.30;91.30;;;;;;6213140;23;20179;-81
2022/01/21 06:09:50;;;;;;;4.50;2.10;;;0.40;90.60;;;;;;6212396;23;20198;-79
2022/01/21 06:12:17;;;;;;;5.53;2.07;;;0.50;90.80;;;;;;6213801;23;20237;-80
2022/01/21 06:14:44;;;;;;;3.03;2.00;;;0.40;90.40;;;;;;6212604;23;20597;-80
2022/01/21 06:17:12;;;;;;;7.47;2.10;;;0.40;91.10;;;;;;6210724;23;20318;-80
2022/01/21 06:20:01;;;;;;;5.63;2.20;;;0.30;90.40;;;;;;6214406;23;20178;-80
2022/01/21 06:22:28;;;;;;;5.50;2.00;;;0.20;90.80;;;;;;6213176;23;20318;-80
2022/01/21 06:24:58;;;;;;;7.30;2.63;;;0.10;90.80;;;;;;6214125;23;20214;-80
2022/01/21 06:27:27;;;;;;;5.73;1.70;;;0.10;91.50;;;;;;6213787;23;20247;-80
2022/01/21 06:29:54;;;;;;;5.17;2.20;;;0.10;90.80;;;;;;6214003;23;20401;-80
2022/01/21 06:32:29;;;;;;;5.53;2.30;;;0.10;90.60;;;;;;6214411;23;20180;-80
2022/01/21 06:34:56;;;;;;;6.33;2.03;;;0.00;90.80;;;;;;6213831;23;20284;-84
2022/01/21 06:37:23;;;;;;;5.17;2.10;;;0.00;91.30;;;;;;6216003;23;20177;-80
2022/01/21 06:39:50;;;;;;;8.17;2.33;;;0.00;91.10;;;;;;6213919;22;20281;-81
2022/01/21 06:42:22;;;;;;;7.63;2.47;;;0.00;91.20;;;;;;6215833;23;20179;-81
2022/01/21 06:44:51;;;;;;;8.83;2.20;;;-0.10;91.10;;;;;;6216955;23;20231;-80
2022/01/21 06:47:19;;;;;;;9.90;2.77;;;-0.20;91.30;;;;;;6215297;23;20240;-81
2022/01/21 06:49:46;;;;;;;7.90;2.10;;;-0.20;91.10;;;;;;6218922;23;20234;-81
2022/01/21 06:52:15;;;;;;;6.73;2.43;;;-0.30;91.30;;;;;;6219989;23;20206;-82
2022/01/21 06:54:42;;;;;;;5.40;2.57;;;-0.30;91.20;;;;;;6221016;23;20198;-83
2022/01/21 06:57:09;;;;;;;3.20;2.17;;;-0.30;91.30;;;;;;6222833;23;20180;-83
2022/01/21 06:59:37;;;;;;;6.33;2.53;;;-0.10;91.20;;;;;;6221053;23;20184;-84
2022/01/21 07:02:05;;;;;;;6.07;2.40;;;-0.10;91.30;;;;;;6224651;23;20204;-83
2022/01/21 07:04:33;;;;;;;7.20;2.80;;;-0.20;91.20;;;;;;6220937;23;20252;-85
2022/01/21 07:07:00;;;;;;;7.33;2.60;;;-0.30;91.50;;;;;;6219885;23;20229;-91
2022/01/21 07:09:28;;;;;;;8.80;2.60;;;-0.40;91.60;;;;;;6224032;23;20174;-81
2022/01/21 07:15:20;;;;;;;5.87;2.20;;;0.10;91.70;;;;;;6219146;23;20200;-80
2022/01/21 07:17:52;;;;;;;12.03;2.60;;;0.20;90.90;;;;;;6216640;23;20206;-85
2022/01/21 07:20:20;;;;;;;6.07;2.40;;;0.10;90.20;;;;;;6216429;22;20204;-83
2022/01/21 07:22:48;;;;;;;5.63;2.30;;;0.00;88.50;;;;;;6213743;23;20177;-81
2022/01/21 07:25:15;;;;;;;5.27;2.60;;;-0.10;89.90;;;;;;6212797;23;20202;-79
2022/01/21 07:27:42;;;;;;;8.93;2.50;;;0.00;90.10;;;;;;6213025;23;20164;-80
2022/01/21 07:33:54;;;;;;;6.90;2.63;;;0.30;90.30;;;;;;6215900;23;20143;-78
2022/01/21 07:39:52;;;;;;;4.90;2.60;;;0.40;90.50;;;;;;6213275;23;20289;-79
2022/01/21 07:42:20;;;;;;;7.70;3.20;;;0.40;90.50;;;;;;6214472;23;20169;-84
2022/01/21 07:44:47;;;;;;;9.27;2.90;;;0.30;90.10;;;;;;6213840;23;20636;-82
2022/01/21 07:47:15;;;;;;;9.10;3.10;;;0.20;90.10;;;;;;6212788;23;20212;-80
2022/01/21 07:49:43;;;;;;;6.70;2.90;;;0.40;90.70;;;;;;6214724;23;20680;-78
2022/01/21 07:52:11;;;;;;;8.30;3.20;;;0.70;89.80;;;;;;6216724;23;20204;-78
2022/01/21 07:54:39;;;;;;;10.97;2.93;;;0.80;86.40;;;;;;6214885;23;20232;-78
2022/01/21 07:57:06;;;;;;;7.67;3.10;;;1.00;88.60;;;;;;6216220;23;20166;-77
2022/01/21 07:59:40;;;;;;;10.30;3.30;;;1.20;88.10;;;;;;6212917;23;20184;-79
2022/01/21 08:02:06;;;;;;;8.60;3.40;;;1.00;87.20;;;;;;6216088;23;20163;-79
2022/01/21 08:04:33;;;;;;;7.07;3.60;;;0.70;89.70;;;;;;6209530;23;20565;-81
2022/01/21 08:07:09;;;;;;;11.93;3.70;;;0.50;90.40;;;;;;6214400;23;20176;-84
2022/01/21 08:09:43;;;;;;;8.90;4.00;;;0.50;91.00;;;;;;6214861;23;20215;-79
2022/01/21 08:12:11;;;;;;;8.40;3.70;;;0.30;91.10;;;;;;6215313;23;20268;-79
2022/01/21 08:14:47;;;;;;;10.20;3.97;;;0.20;91.40;;;;;;6210694;23;20673;-79
2022/01/21 08:17:18;;;;;;;11.77;3.70;;;0.20;91.40;;;;;;6216081;23;20591;-81
2022/01/21 08:19:46;;;;;;;7.63;3.73;;;0.20;92.50;;;;;;6216445;23;20529;-80
2022/01/21 08:22:14;;;;;;;9.07;3.63;;;0.30;92.20;;;;;;6215682;23;20229;-78
2022/01/21 08:24:41;;;;;;;12.93;4.10;;;0.50;91.70;;;;;;6215182;23;20181;-83
2022/01/21 08:27:10;;;;;;;9.73;3.80;;;0.80;91.50;;;;;;6215064;23;20205;-83
2022/01/21 08:29:37;;;;;;;13.77;3.83;;;1.10;90.90;;;;;;6216294;23;20209;-83
2022/01/21 08:34:47;;;;;;;9.03;3.50;;;1.50;86.70;;;;;;6212653;23;20221;-82
2022/01/21 08:37:16;;;;;;;8.33;3.27;;;1.60;86.80;;;;;;6217003;23;20184;-85
2022/01/21 08:39:44;;;;;;;9.20;3.73;;;1.70;83.60;;;;;;6215323;23;21115;-82
2022/01/21 08:42:12;;;;;;;8.53;3.33;;;1.60;82.60;;;;;;6216278;23;20184;-80
2022/01/21 08:44:43;;;;;;;8.60;3.30;;;1.30;82.00;;;;;;6212799;23;20168;-80
2022/01/21 08:47:22;;;;;;;8.07;3.40;;;1.10;82.90;;;;;;6215167;23;20241;-81
2022/01/21 08:49:49;;;;;;;13.73;3.43;;;0.90;85.70;;;;;;6214859;23;20201;-79
2022/01/21 08:52:19;;;;;;;8.43;3.50;;;1.00;86.40;;;;;;6213575;23;20225;-79
2022/01/21 08:54:47;;;;;;;9.77;3.60;;;0.90;84.60;;;;;;6214476;23;20276;-78
2022/01/21 08:57:13;;;;;;;8.60;3.10;;;0.80;85.10;;;;;;6214828;23;20679;-79
2022/01/21 08:59:40;;;;;;;12.17;3.37;;;0.70;85.40;;;;;;6213863;22;20557;-81
2022/01/21 09:02:10;;;;;;;8.73;3.13;;;0.80;84.70;;;;;;6214819;23;20268;-80
2022/01/21 09:04:38;;;;;;;8.27;2.73;;;0.90;85.50;;;;;;6214009;23;20158;-81
2022/01/21 09:07:05;;;;;;;8.23;3.43;;;1.30;81.50;;;;;;6213625;23;20223;-79
2022/01/21 09:09:38;;;;;;;7.80;3.20;;;2.00;81.50;;;;;;6214506;23;20171;-79
2022/01/21 09:12:06;;;;;;;12.90;3.03;;;2.20;75.90;;;;;;6214369;23;20185;-79
2022/01/21 09:14:33;;;;;;;6.97;3.00;;;1.90;74.40;;;;;;6213839;23;20170;-78
2022/01/21 09:17:00;;;;;;;7.67;3.10;;;1.80;75.50;;;;;;6213805;23;20190;-78
2022/01/21 09:19:35;;;;;;;7.93;3.10;;;1.70;78.40;;;;;;6212189;23;20634;-80
2022/01/21 09:22:03;;;;;;;9.17;3.27;;;1.70;76.50;;;;;;6214056;23;20161;-81
2022/01/21 09:24:30;;;;;;;4.97;3.10;;;1.70;78.40;;;;;;6212288;23;20261;-78
2022/01/21 09:27:09;;;;;;;11.57;3.17;;;1.70;75.70;;;;;;6214150;23;20180;-79
2022/01/21 09:29:36;;;;;;;5.63;3.10;;;2.20;78.70;;;;;;6213596;23;20162;-79
2022/01/21 09:32:05;;;;;;;8.60;3.63;;;2.40;72.50;;;;;;6214321;23;20498;-86
2022/01/21 09:34:32;;;;;;;8.73;3.07;;;2.70;72.30;;;;;;6213862;23;20568;-84
2022/01/21 09:37:01;;;;;;;9.10;3.20;;;3.50;64.30;;;;;;6216617;23;20176;-83
2022/01/21 09:39:29;;;;;;;7.70;2.90;;;3.80;60.50;;;;;;6217514;23;20205;-84
2022/01/21 09:41:59;;;;;;;7.22;3.17;;;4.90;54.70;;;;;;6220102;23;20208;-84
2022/01/21 09:44:28;;;;;;;10.07;3.37;;;4.80;50.20;;;;;;6218836;23;20169;-84
2022/01/21 09:47:00;;;;;;;7.07;3.17;;;4.40;52.10;;;;;;6215485;23;20174;-83
2022/01/21 09:49:27;;;;;;;7.27;3.40;;;4.50;54.00;;;;;;6215319;23;20158;-84
2022/01/21 09:51:55;;;;;;;8.33;3.10;;;4.10;53.30;;;;;;6216526;23;20288;-81
2022/01/21 09:54:23;;;;;;;6.73;3.23;;;3.60;54.70;;;;;;6215822;23;20529;-80
2022/01/21 09:56:52;;;;;;;9.47;3.60;;;3.40;57.60;;;;;;6218217;23;20192;-81
2022/01/21 09:59:20;;;;;;;7.63;2.80;;;2.90;63.30;;;;;;6213717;23;20181;-81
2022/01/21 10:01:51;;;;;;;8.57;2.90;;;2.60;61.80;;;;;;6213000;23;20205;-80
2022/01/21 10:04:19;;;;;;;8.00;2.77;;;2.50;67.10;;;;;;6213151;23;20162;-88
2022/01/21 10:06:48;;;;;;;7.20;2.63;;;2.70;63.80;;;;;;6212941;23;20202;-81
2022/01/21 10:09:16;;;;;;;7.63;3.00;;;2.60;67.20;;;;;;6213674;23;20181;-83
2022/01/21 10:11:47;;;;;;;9.00;3.07;;;2.40;67.00;;;;;;6214007;23;20300;-83
2022/01/21 10:14:15;;;;;;;7.90;3.00;;;2.20;66.80;;;;;;6214134;23;20195;-80
2022/01/21 10:16:42;;;;;;;8.60;2.83;;;2.30;69.50;;;;;;6214073;23;20202;-80
2022/01/21 10:19:11;;;;;;;8.73;3.07;;;2.20;70.90;;;;;;6215127;23;20174;-81
2022/01/21 10:21:43;;;;;;;9.40;2.73;;;2.10;66.70;;;;;;6214442;23;20212;-81
2022/01/21 10:24:12;;;;;;;8.47;2.50;;;2.20;70.60;;;;;;6214348;23;20522;-78
2022/01/21 10:26:47;;;;;;;8.00;2.83;;;2.20;66.80;;;;;;6213260;23;20665;-80
2022/01/21 10:29:14;;;;;;;8.63;2.90;;;2.20;66.80;;;;;;6213838;23;20168;-81
2022/01/21 10:31:52;;;;;;;10.73;2.57;;;2.20;66.80;;;;;;6212918;23;20209;-81
2022/01/21 10:34:43;;;;;;;5.87;2.83;;;2.60;67.20;;;;;;6211688;23;20488;-81
2022/01/21 10:37:31;;;;;;;9.17;2.43;;;2.90;59.60;;;;;;6212563;23;20182;-90
2022/01/21 10:40:01;;;;;;;8.53;2.73;;;3.00;59.40;;;;;;6212745;23;20230;-80
2022/01/21 10:42:30;;;;;;;7.50;3.10;;;2.90;59.30;;;;;;6212319;23;20256;-82
2022/01/21 10:44:58;;;;;;;8.60;2.73;;;2.70;61.40;;;;;;6211874;23;20574;-80
2022/01/21 10:47:30;;;;;;;6.53;2.97;;;2.80;63.50;;;;;;6211240;23;20184;-80
2022/01/21 10:50:06;;;;;;;9.80;3.00;;;2.90;57.70;;;;;;6211538;23;20193;-80
2022/01/21 10:52:38;;;;;;;5.87;2.80;;;2.60;59.70;;;;;;6213791;23;20186;-84
2022/01/21 10:55:25;;;;;;;8.07;2.97;;;2.30;62.70;;;;;;6214574;23;20211;-83
2022/01/21 10:58:05;;;;;;;9.57;3.00;;;2.10;66.70;;;;;;6212686;23;20166;-80
2022/01/21 11:00:32;;;;;;;11.73;3.07;;;1.80;72.70;;;;;;6210379;23;20654;-81
2022/01/21 11:03:13;;;;;;;11.10;3.73;;;1.80;75.60;;;;;;6211497;23;20178;-82
2022/01/21 11:05:45;;;;;;;8.70;2.97;;;1.50;79.00;;;;;;6211407;23;20657;-78
2022/01/21 11:08:14;;;;;;;8.90;3.30;;;1.50;82.00;;;;;;6212115;23;20246;-79
2022/01/21 11:10:47;;;;;;;8.07;3.10;;;1.60;81.70;;;;;;6211446;23;20204;-79
2022/01/21 11:13:40;;;;;;;7.57;3.43;;;1.80;78.90;;;;;;6210696;23;20776;-79
2022/01/21 11:16:26;;;;;;;7.33;3.63;;;2.00;77.00;;;;;;6210553;23;20666;-82
2022/01/21 11:18:58;;;;;;;6.53;2.90;;;3.40;71.40;;;;;;6212627;23;20570;-82
2022/01/21 11:21:41;;;;;;;9.17;3.40;;;3.90;55.30;;;;;;6215693;23;20213;-80
2022/01/21 11:24:10;;;;;;;6.43;2.40;;;3.90;57.00;;;;;;6212384;23;20178;-82
2022/01/21 11:26:37;;;;;;;5.60;2.63;;;3.30;53.40;;;;;;6212983;23;20197;-79
2022/01/21 11:29:06;;;;;;;9.03;3.07;;;2.90;55.50;;;;;;6213900;23;20198;-80
2022/01/21 11:31:33;;;;;;;7.60;2.70;;;2.80;56.90;;;;;;6212833;23;20220;-79
2022/01/21 11:34:00;;;;;;;8.37;2.73;;;2.40;57.40;;;;;;6212750;23;20180;-80
2022/01/21 11:36:34;;;;;;;8.80;3.43;;;1.90;62.30;;;;;;6213743;23;20206;-81
2022/01/21 11:39:02;;;;;;;8.20;2.83;;;1.80;66.40;;;;;;6215078;23;20169;-78
2022/01/21 11:41:29;;;;;;;7.40;2.77;;;1.80;67.80;;;;;;6214361;22;20537;-79
2022/01/21 11:44:01;;;;;;;7.27;2.53;;;1.60;60.30;;;;;;6214466;23;20262;-81
2022/01/21 11:47:00;;;;;;;5.87;2.80;;;1.40;65.90;;;;;;6211394;23;20236;-78
2022/01/21 11:49:27;;;;;;;9.63;2.80;;;1.40;67.20;;;;;;6212475;23;20166;-84
2022/01/21 11:52:11;;;;;;;6.00;2.70;;;1.50;70.70;;;;;;6215502;23;20276;-80
2022/01/21 11:54:40;;;;;;;10.13;2.93;;;1.50;68.50;;;;;;6214882;23;20185;-80
2022/01/21 11:57:10;;;;;;;9.17;2.77;;;1.50;66.10;;;;;;6216008;23;20162;-83
2022/01/21 11:59:50;;;;;;;7.43;2.33;;;1.60;66.10;;;;;;6212025;23;20159;-83
2022/01/21 12:02:23;;;;;;;8.57;2.43;;;1.70;66.20;;;;;;6212740;23;20260;-81
2022/01/21 12:04:52;;;;;;;11.50;2.77;;;1.80;64.40;;;;;;6214164;23;20204;-82
2022/01/21 12:07:45;;;;;;;9.00;2.53;;;1.90;62.30;;;;;;6215927;23;20174;-81
2022/01/21 12:10:18;;;;;;;6.63;2.27;;;1.70;59.70;;;;;;6213708;23;20267;-82
2022/01/21 12:13:05;;;;;;;6.93;2.40;;;1.60;60.50;;;;;;6215787;23;20201;-81
2022/01/21 12:19:17;;;;;;;11.53;2.73;;;1.50;59.90;;;;;;6213874;23;20646;-82
2022/01/21 12:21:44;;;;;;;7.93;2.60;;;1.90;59.00;;;;;;6213083;23;20209;-85
2022/01/21 12:24:11;;;;;;;9.40;2.57;;;2.40;55.90;;;;;;6212673;23;20193;-88
2022/01/21 12:26:55;;;;;;;8.67;2.60;;;2.40;55.90;;;;;;6211746;23;20758;-83
2022/01/21 12:29:28;;;;;;;5.13;2.17;;;2.60;53.60;;;;;;6214233;23;20166;-82
2022/01/21 12:32:01;;;;;;;7.03;2.20;;;2.90;52.90;;;;;;6214914;23;20198;-83
2022/01/21 12:35:04;;;;;;;7.00;2.67;;;3.20;50.90;;;;;;6213012;23;20185;-84
2022/01/21 12:37:50;;;;;;;7.93;2.43;;;3.10;47.70;;;;;;6213114;23;20506;-81
2022/01/21 12:40:33;;;;;;;8.93;2.30;;;3.20;50.60;;;;;;6220783;23;20197;-81
2022/01/21 12:43:01;;;;;;;8.67;2.27;;;3.60;44.00;;;;;;6218033;23;20233;-87
2022/01/21 12:45:28;;;;;;;8.07;2.90;;;3.70;45.20;;;;;;6218085;23;20202;-87
2022/01/21 12:47:55;;;;;;;5.20;2.10;;;3.80;45.90;;;;;;6212574;23;20264;-82
2022/01/21 12:50:31;;;;;;;5.47;2.20;;;3.90;48.70;;;;;;6215414;23;20272;-82
2022/01/21 12:53:17;;;;;;;9.43;2.60;;;3.70;46.60;;;;;;6214896;23;20186;-81
2022/01/21 12:55:55;;;;;;;4.90;2.40;;;3.50;48.20;;;;;;6216138;23;20209;-83
2022/01/21 12:58:27;;;;;;;9.67;2.83;;;3.40;47.80;;;;;;6217339;23;20538;-85
2022/01/21 13:00:57;;;;;;;7.60;2.43;;;3.10;46.70;;;;;;6214139;23;20600;-81
2022/01/21 13:03:27;;;;;;;9.70;2.90;;;3.20;48.30;;;;;;6215120;23;20163;-82
2022/01/21 13:06:08;;;;;;;7.87;3.00;;;3.30;47.80;;;;;;6212719;23;20202;-82
2022/01/21 13:08:40;;;;;;;8.00;2.47;;;3.40;49.70;;;;;;6216039;23;20190;-80
2022/01/21 13:11:16;;;;;;;9.77;2.80;;;3.40;48.80;;;;;;6218586;23;20210;-81
2022/01/21 13:13:52;;;;;;;7.23;2.70;;;3.50;46.20;;;;;;6217923;23;20264;-81
2022/01/21 13:16:31;;;;;;;5.00;2.67;;;3.40;47.30;;;;;;6215203;23;20208;-80
2022/01/21 13:19:02;;;;;;;4.80;2.40;;;3.30;45.30;;;;;;6216325;23;20272;-80
2022/01/21 13:21:29;;;;;;;6.03;2.50;;;3.40;47.70;;;;;;6217063;23;20673;-80
2022/01/21 13:23:58;;;;;;;7.53;2.87;;;3.50;48.10;;;;;;6216781;23;20260;-82
2022/01/21 13:26:26;;;;;;;9.17;3.37;;;3.50;43.00;;;;;;6215205;23;20208;-81
2022/01/21 13:28:58;;;;;;;5.40;2.37;;;3.20;45.50;;;;;;6216644;23;20717;-82
2022/01/21 13:31:25;;;;;;;8.97;2.80;;;3.00;45.30;;;;;;6213782;23;20197;-85
2022/01/21 13:33:53;;;;;;;6.83;2.73;;;2.80;47.90;;;;;;6211286;23;20202;-80
2022/01/21 13:36:40;;;;;;;6.30;2.50;;;2.80;47.40;;;;;;6211178;23;20281;-80
2022/01/21 13:39:11;;;;;;;4.97;2.47;;;3.00;46.50;;;;;;6215200;23;20180;-80
2022/01/21 13:42:02;;;;;;;8.13;2.43;;;3.00;47.10;;;;;;6218340;23;20203;-81
2022/01/21 13:44:37;;;;;;;6.53;2.67;;;2.90;47.20;;;;;;6215629;23;20162;-83
2022/01/21 13:47:07;;;;;;;7.63;2.47;;;2.80;45.70;;;;;;6218251;23;20196;-81
2022/01/21 13:49:34;;;;;;;8.50;2.87;;;2.80;47.60;;;;;;6217424;23;20230;-84
2022/01/21 13:52:03;;;;;;;6.10;2.57;;;2.70;44.60;;;;;;6215929;23;20241;-81
2022/01/21 13:54:35;;;;;;;7.30;2.37;;;2.80;45.60;;;;;;6214085;23;20622;-80
2022/01/21 13:57:05;;;;;;;6.87;2.60;;;2.70;46.60;;;;;;6215947;23;20487;-83
2022/01/21 13:59:34;;;;;;;7.83;2.67;;;2.80;47.70;;;;;;6216984;23;20184;-86
2022/01/21 14:02:07;;;;;;;7.17;2.40;;;3.00;45.80;;;;;;6216281;23;20188;-81
2022/01/21 14:04:34;;;;;;;9.67;2.37;;;3.30;45.90;;;;;;6219422;23;20212;-80
2022/01/21 14:07:04;;;;;;;13.37;2.77;;;3.40;44.30;;;;;;6220489;23;20245;-80
2022/01/21 14:09:31;;;;;;;5.87;2.60;;;3.50;45.90;;;;;;6218320;23;20173;-80